Terminal Aerodrome Forecast
Issued by NWS Columbia, SC

Home | Current Version | Previous Version | Text Only | Print | Product List | Glossary On
Versions: 1 2 3 4 5 6 7 8 9 10 11 12 13 14 15 16 17 18 19 20 21 22 23 24 25 26 27 28 29
000
FTUS42 KCAE 252041 AAB
TAFCAE
TAF AMD
KCAE 252041Z 2521/2618 VRB03KT P6SM VCSH SCT040 OVC060
     FM260000 VRB05KT 6SM -SHRA BR SCT025 OVC035
     FM260400 VRB04KT 5SM -RA BR SCT010 OVC025
     FM261000 VRB05KT 4SM -SHRA BR OVC007=

USA.gov is the U.S. government's official web portal to all federal, state and local government web resources and services.